createdAt,value
2019-03-28T20:43:23.649Z,3.60
2019-03-28T20:45:53.287Z,3.85
2019-03-28T20:48:24.495Z,3.67
2019-03-28T20:50:54.179Z,3.70
2019-03-28T21:41:35.287Z,8.07
2019-03-28T21:44:04.483Z,7.33
2019-03-28T21:52:24.195Z,7.30
2019-03-28T21:55:22.527Z,8.45
2019-03-28T21:59:46.987Z,8.37
2019-03-28T22:02:16.085Z,7.17
2019-03-28T22:04:45.208Z,7.90
2019-03-28T22:07:15.055Z,7.53
2019-03-28T22:09:44.559Z,7.45
2019-03-28T22:12:13.647Z,7.17
2019-03-28T22:14:42.722Z,6.85
2019-03-28T22:17:11.815Z,6.70
2019-03-28T22:19:41.172Z,6.95
2019-03-28T22:22:10.238Z,6.87
2019-03-28T22:28:39.095Z,17.57
2019-03-28T22:31:08.312Z,19.32
2019-03-28T22:33:39.184Z,21.60
2019-03-28T22:36:10.005Z,20.20
2019-03-28T22:38:42.505Z,22.15
2019-03-28T22:41:27.388Z,27.13
2019-03-28T22:44:00.783Z,25.50
2019-03-28T22:49:51.160Z,27.80
2019-03-28T22:52:40.156Z,26.03
2019-03-28T22:55:21.747Z,25.93
2019-03-28T22:57:53.907Z,25.13
2019-03-28T23:00:23.921Z,24.30
2019-03-28T23:03:04.652Z,25.57
2019-03-28T23:05:33.836Z,28.07
2019-03-28T23:08:14.004Z,28.97
2019-03-28T23:10:43.202Z,31.33
2019-03-28T23:13:12.502Z,32.87
2019-03-28T23:15:47.158Z,34.80
2019-03-28T23:18:16.452Z,31.13
2019-03-28T23:20:58.106Z,31.67
2019-03-28T23:23:27.430Z,32.73
2019-03-28T23:25:56.721Z,33.30
2019-03-28T23:28:31.635Z,31.47
2019-03-28T23:31:00.922Z,31.27
2019-03-28T23:33:30.319Z,31.77
2019-03-28T23:36:05.307Z,29.13
2019-03-28T23:38:34.551Z,28.23
2019-03-28T23:41:03.854Z,28.10
2019-03-28T23:43:33.171Z,33.70
2019-03-28T23:46:02.463Z,33.57
2019-03-28T23:48:31.796Z,29.77
2019-03-28T23:53:36.348Z,26.00
2019-03-28T23:56:05.596Z,22.23
2019-03-28T23:58:46.887Z,19.63
